Date,TemperatureHighF,TemperatureAvgF,TemperatureLowF,DewpointHighF,DewpointAvgF,DewpointLowF,HumidityHigh,HumidityAvg,HumidityLow,PressureMaxIn,PressureMinIn,WindSpeedMaxMPH,WindSpeedAvgMPH,GustSpeedMaxMPH,PrecipitationSumIn
2013-5-1,78,64,53,51,45,32,84,54,26,30.34,30.19,13,3,13,0.00
2013-5-2,77,63,45,42,37,31,77,39,23,30.40,30.21,13,3,14,0.00
2013-5-3,75,62,47,46,40,36,71,46,29,30.28,30.15,16,4,17,0.00
2013-5-4,72,60,46,44,40,37,75,50,33,30.25,30.07,16,4,16,0.00
2013-5-5,74,61,45,45,36,26,86,45,21,30.17,30.00,18,4,18,0.00
2013-5-6,73,58,42,53,44,33,80,55,38,30.13,30.01,13,2,14,0.00
2013-5-7,71,62,57,55,53,49,83,68,43,30.04,29.95,12,2,15,0.00
2013-5-8,73,62,55,57,52,44,91,70,33,30.01,29.88,9,2,9,0.16
2013-5-9,76,64,55,59,52,47,88,65,33,30.00,29.89,8,1,13,0.00
2013-5-10,73,62,56,63,57,52,92,81,60,30.01,29.81,13,2,18,0.43
2013-5-11,72,60,52,63,55,46,90,79,67,30.06,29.75,15,3,21,0.33
2013-5-12,76,48,39,65,33,27,87,53,36,30.14,29.80,18,5,24,0.74
2013-5-13,52,43,34,34,28,23,87,52,31,30.24,30.03,10,3,11,0.00
2013-5-14,57,45,30,39,32,24,88,57,39,30.25,29.92,10,2,13,0.00
2013-5-15,86,66,48,61,51,36,89,56,34,29.93,29.68,18,4,22,0.00
2013-5-16,82,70,59,64,53,43,92,56,23,29.98,29.75,10,2,11,0.08
2013-5-17,80,64,49,60,51,44,91,62,31,30.13,29.97,7,1,9,0.00
2013-5-18,82,67,55,60,52,44,78,55,32,30.17,30.02,9,1,11,0.00
2013-5-19,77,68,59,63,60,57,93,73,55,30.13,29.97,10,2,10,0.00
2013-5-20,86,73,62,67,63,59,92,68,43,30.06,29.88,9,2,11,0.00
2013-5-21,88,76,67,70,66,61,91,67,39,29.96,29.77,13,3,13,0.04
2013-5-22,87,74,67,68,62,60,81,62,39,29.90,29.76,13,4,17,0.04
2013-5-23,76,66,60,65,61,57,92,81,49,29.88,29.77,13,3,17,1.45
2013-5-24,61,46,40,58,39,30,94,73,50,30.32,29.88,12,3,12,0.04
2013-5-25,62,49,36,38,33,30,83,54,30,30.33,30.21,13,3,13,0.00
2013-5-26,67,53,37,40,34,29,79,47,28,30.32,30.18,9,2,9,0.00
2013-5-27,63,50,39,45,38,34,94,63,35,30.30,30.18,7,1,8,0.00
2013-5-28,80,74,66,68,63,59,88,68,53,30.08,29.98,16,6,16,0.00
2013-5-29,87,75,63,63,60,56,86,59,40,30.12,29.98,19,6,19,0.00
2013-5-30,87,74,61,67,62,57,92,68,37,30.18,30.05,12,2,12,0.00
2013-5-31,89,76,64,67,63,60,92,66,39,30.12,29.95,12,3,13,0.00